Fort Smith, AR

10:07 AM CDT on August 27, 2016 (GMT -0500)
Fort Smith Regional | | Change Station

Elev 463 ft 35.33 °N, 94.36 °W | Updated 14 minutes ago

Mostly Cloudy
Mostly Cloudy
81 °F
Feels Like 86 °F
N
6
Wind Variable Wind from East

Today
High -- | Low -- °F
--% Chance of Precip.
Yesterday
High -- | Low -- °F
Precip. -- in
Pressure 30.05 in
Visibility 10.0 miles
Clouds Scattered Clouds 3100 ft
Mostly Cloudy 4600 ft
Mostly Cloudy 6000 ft
Heat Index 86 °F
Dew Point 73 °F
Humidity 77%
Rainfall 0.00 in
Snow Depth Not available.
6:46 AM 7:50 PM
Waning Crescent, 24% visible
METAR KFSM 271453Z 08005KT 10SM SCT031 BKN046 BKN060 27/23 A3006 RMK AO2 SLP175 T02720228 52003
Pressure 30.05 in
Visibility 10.0 miles
Clouds Scattered Clouds 3100 ft
Mostly Cloudy 4600 ft
Mostly Cloudy 6000 ft
Heat Index 86 °F
Dew Point 73 °F
Humidity 77%
Rainfall 0.00 in
Snow Depth Not available.
6:46 AM 7:50 PM
Waning Crescent, 24% visible
METAR KFSM 271453Z 08005KT 10SM SCT031 BKN046 BKN060 27/23 A3006 RMK AO2 SLP175 T02720228 52003

10-Day Weather Forecast

Almanac

Astronomy

Aug. 27, 2016 Rise Set
Actual Time
Civil Twilight
Nautical Twilight
Astronomical Twilight
Moon
Length of Visible Light
Length of Day
Tomorrow will be .
, % of the Moon is Illuminated

Today's Extremes

State Highs State Lows

Community

WunderPhotos

Upload Photos

1,935,354 photos uploaded!

WunderBlog® & News

Nearby

Air Quality

  Air Quality AQ Index Pollutant
Not available.

Snow Depth

Station Depth Elevation

Earthquake Activity

City Distance Mag. Time & Date
Minimum magnitude displayed is 2.5.

Coastal Water Temperatures

Place Temperature

Stations

Nearby Weather Stations

Station Location Temp. Windchill Dew Point Humidity Wind Precip. Elev Updated Type
                   

Watches & Warnings

There are currently no watches in effect.